Time;durP1;ratioP1;P1;durP2;ratioP2;P2;SDS_P1;SDS_P2;PMS_P1;PMS_P2;Temp;Humidity;BMP_temperature;BMP_pressure;BME280_temperature;BME280_humidity;BME280_pressure;Samples;Min_cycle;Max_cycle;Signal;HPM_P1;HPM_P2
2023/01/10 00:01:31;;;;;;;20.92;4.10;;;4.60;99.90;;;;;;5094728;28;20047;-48
2023/01/10 00:03:56;;;;;;;22.17;3.88;;;4.70;99.90;;;;;;5092904;28;20405;-46
2023/01/10 00:06:22;;;;;;;23.88;4.88;;;4.80;99.90;;;;;;5076446;28;20140;-45
2023/01/10 00:08:48;;;;;;;19.13;4.00;;;4.70;99.90;;;;;;5094494;28;20075;-47
2023/01/10 00:13:58;;;;;;;24.95;4.85;;;4.90;99.90;;;;;;5094963;28;20109;-45
2023/01/10 00:16:24;;;;;;;23.23;4.90;;;5.00;99.90;;;;;;5096505;28;20628;-46
2023/01/10 00:18:49;;;;;;;20.52;4.10;;;5.10;99.90;;;;;;5094772;28;20035;-45
2023/01/10 00:21:15;;;;;;;24.00;4.90;;;5.10;99.90;;;;;;5093995;28;20043;-47
2023/01/10 00:23:42;;;;;;;19.77;4.35;;;5.20;99.90;;;;;;5093843;28;20051;-46
2023/01/10 00:26:08;;;;;;;17.80;4.68;;;5.10;99.90;;;;;;5093675;28;20043;-46
2023/01/10 00:28:34;;;;;;;24.95;5.20;;;5.10;99.90;;;;;;5094694;28;20136;-47
2023/01/10 00:31:05;;;;;;;19.13;3.92;;;5.20;99.90;;;;;;5075224;28;20051;-46
2023/01/10 00:33:31;;;;;;;34.03;5.25;;;5.20;99.90;;;;;;5093452;28;20048;-46
2023/01/10 00:35:58;;;;;;;22.05;4.20;;;5.30;99.90;;;;;;5093740;28;20047;-47
2023/01/10 00:38:24;;;;;;;20.95;5.38;;;5.20;99.90;;;;;;5075358;28;20070;-47
2023/01/10 00:40:49;;;;;;;20.15;3.72;;;5.30;99.90;;;;;;5094058;28;20051;-46
2023/01/10 00:46:01;;;;;;;25.60;4.57;;;5.30;99.90;;;;;;5092843;28;20789;-47
2023/01/10 00:48:27;;;;;;;29.13;4.40;;;5.20;99.90;;;;;;5074932;28;20039;-45
2023/01/10 00:50:53;;;;;;;25.92;6.00;;;5.30;99.90;;;;;;5092832;28;20100;-47
2023/01/10 00:53:18;;;;;;;31.13;5.47;;;5.30;99.90;;;;;;5093624;28;20179;-46
2023/01/10 00:55:44;;;;;;;24.17;4.60;;;5.20;99.90;;;;;;5094209;28;20203;-45
2023/01/10 00:58:12;;;;;;;29.90;4.10;;;5.20;99.90;;;;;;5093698;28;20549;-46
2023/01/10 01:00:38;;;;;;;25.67;4.80;;;5.40;99.90;;;;;;5093820;28;20146;-49
2023/01/10 01:03:05;;;;;;;22.83;4.10;;;5.40;99.90;;;;;;5095058;28;20051;-47
2023/01/10 01:05:31;;;;;;;28.92;5.00;;;5.40;99.90;;;;;;5093566;28;20197;-46
2023/01/10 01:07:56;;;;;;;20.77;3.90;;;5.40;99.90;;;;;;5094875;28;20489;-45
2023/01/10 01:10:25;;;;;;;21.58;5.15;;;5.60;99.90;;;;;;5095477;28;20130;-45
2023/01/10 01:12:51;;;;;;;26.27;5.43;;;5.60;99.90;;;;;;5093173;28;20047;-46
2023/01/10 01:15:17;;;;;;;17.50;3.63;;;5.70;99.90;;;;;;5092321;28;20054;-47
2023/01/10 01:17:42;;;;;;;27.67;4.45;;;5.60;99.90;;;;;;5093802;28;20405;-46
2023/01/10 01:20:09;;;;;;;16.48;4.03;;;5.60;99.90;;;;;;5092631;28;20036;-47
2023/01/10 01:22:35;;;;;;;22.05;3.58;;;5.60;99.90;;;;;;5092484;28;20048;-45
2023/01/10 01:25:03;;;;;;;22.85;4.57;;;5.60;99.90;;;;;;5074656;28;20507;-48
2023/01/10 01:27:29;;;;;;;25.77;3.80;;;5.70;99.90;;;;;;5093064;28;20043;-45
2023/01/10 01:29:54;;;;;;;17.63;3.20;;;5.70;99.90;;;;;;5093740;28;20127;-47
2023/01/10 01:32:20;;;;;;;20.10;3.28;;;5.80;99.90;;;;;;5074357;28;20039;-45
2023/01/10 01:34:46;;;;;;;19.80;3.40;;;5.80;99.90;;;;;;5092376;28;20071;-46
2023/01/10 01:37:12;;;;;;;18.60;3.92;;;5.90;99.90;;;;;;5093225;28;20051;-46
2023/01/10 01:39:37;;;;;;;21.70;3.83;;;5.90;99.90;;;;;;5092638;28;20502;-46
2023/01/10 01:42:04;;;;;;;21.75;5.38;;;5.90;99.90;;;;;;5092374;28;20638;-45
2023/01/10 01:44:35;;;;;;;26.02;4.40;;;5.90;99.90;;;;;;5091707;28;20500;-48
2023/01/10 01:47:19;;;;;;;21.05;4.03;;;5.90;99.90;;;;;;5093119;28;20476;-45
2023/01/10 01:49:45;;;;;;;19.60;4.00;;;5.80;99.90;;;;;;5092859;28;20441;-49
2023/01/10 01:52:21;;;;;;;21.05;4.05;;;5.80;99.90;;;;;;5092074;28;20047;-47
2023/01/10 01:54:47;;;;;;;28.33;4.30;;;5.70;99.90;;;;;;5092132;28;20409;-46
2023/01/10 01:57:19;;;;;;;23.10;4.47;;;5.50;99.90;;;;;;5093042;28;20112;-47
2023/01/10 01:59:48;;;;;;;15.70;3.78;;;5.50;99.90;;;;;;5092656;28;20043;-47
2023/01/10 02:02:19;;;;;;;21.90;4.78;;;5.50;99.90;;;;;;5092897;28;20036;-46
2023/01/10 02:04:59;;;;;;;23.20;5.65;;;5.40;99.90;;;;;;5092985;28;20522;-46
2023/01/10 02:07:28;;;;;;;19.85;3.90;;;5.40;99.90;;;;;;5094333;28;20043;-48
2023/01/10 02:10:06;;;;;;;17.10;3.72;;;5.40;99.90;;;;;;5094248;28;20048;-48
2023/01/10 02:12:32;;;;;;;25.98;3.85;;;5.60;99.90;;;;;;5092257;28;20051;-46
2023/01/10 02:14:58;;;;;;;21.35;6.35;;;5.60;99.90;;;;;;5092309;28;20044;-46
2023/01/10 02:17:24;;;;;;;29.00;4.72;;;5.60;99.90;;;;;;5092340;28;20043;-47
2023/01/10 02:20:04;;;;;;;17.90;4.07;;;5.70;99.90;;;;;;5092794;28;20039;-46
2023/01/10 02:22:53;;;;;;;25.85;4.30;;;5.80;99.90;;;;;;5092526;28;20588;-46
2023/01/10 02:25:57;;;;;;;22.35;4.55;;;5.70;99.90;;;;;;5091850;28;20172;-46
2023/01/10 02:28:53;;;;;;;19.00;3.67;;;5.80;99.90;;;;;;5053345;28;20465;-47
2023/01/10 02:31:36;;;;;;;21.75;3.63;;;5.80;99.90;;;;;;5052064;28;20044;-47
2023/01/10 02:34:20;;;;;;;17.55;4.32;;;5.80;99.90;;;;;;5035714;28;20068;-46
2023/01/10 02:37:10;;;;;;;18.25;2.95;;;5.90;99.90;;;;;;5052740;28;20052;-46
2023/01/10 02:39:58;;;;;;;20.30;3.55;;;5.80;99.90;;;;;;5052477;28;20612;-46
2023/01/10 02:42:54;;;;;;;17.95;3.70;;;5.90;99.90;;;;;;5052286;28;20048;-45
2023/01/10 02:45:53;;;;;;;16.33;3.63;;;5.80;99.90;;;;;;5051317;28;20465;-47
2023/01/10 02:48:20;;;;;;;14.18;3.38;;;5.80;99.90;;;;;;4972767;28;20225;-48
2023/01/10 02:51:02;;;;;;;21.55;4.13;;;6.00;99.90;;;;;;4972934;28;20046;-51
2023/01/10 02:53:42;;;;;;;19.33;3.83;;;5.80;99.90;;;;;;4973101;28;20062;-49
2023/01/10 02:56:39;;;;;;;12.10;4.05;;;6.00;99.90;;;;;;4972813;28;20093;-48
2023/01/10 02:59:42;;;;;;;21.40;4.07;;;5.90;99.90;;;;;;4973566;28;20058;-47
2023/01/10 03:02:32;;;;;;;18.77;4.30;;;5.90;99.90;;;;;;4969327;28;20345;-46
2023/01/10 03:05:07;;;;;;;23.33;4.30;;;5.80;99.90;;;;;;4964415;28;20085;-46
2023/01/10 03:07:43;;;;;;;21.42;5.28;;;5.80;99.90;;;;;;5008073;28;20076;-46
2023/01/10 03:10:26;;;;;;;24.30;4.88;;;5.90;99.90;;;;;;5012693;28;20045;-45
2023/01/10 03:13:03;;;;;;;22.05;4.30;;;5.90;99.90;;;;;;5012082;28;20136;-50
2023/01/10 03:15:34;;;;;;;18.83;3.65;;;5.90;99.90;;;;;;5010820;28;20045;-48
2023/01/10 03:18:02;;;;;;;27.88;4.22;;;5.90;99.90;;;;;;5011145;28;20147;-46
2023/01/10 03:20:33;;;;;;;20.55;3.20;;;5.90;99.90;;;;;;5008869;28;20056;-48
2023/01/10 03:23:01;;;;;;;24.15;4.72;;;5.80;99.90;;;;;;5011225;28;20052;-46
2023/01/10 03:25:33;;;;;;;23.60;4.30;;;6.00;99.90;;;;;;5077932;28;20051;-46
2023/01/10 03:28:05;;;;;;;23.48;3.92;;;6.00;99.90;;;;;;5095258;28;20468;-48
2023/01/10 03:30:51;;;;;;;27.88;5.25;;;5.90;99.90;;;;;;5094486;28;20852;-47
2023/01/10 03:33:28;;;;;;;22.48;4.00;;;6.00;99.90;;;;;;5094648;28;20047;-49
2023/01/10 03:36:00;;;;;;;22.98;3.85;;;5.90;99.90;;;;;;5093932;28;20051;-50
2023/01/10 03:38:42;;;;;;;25.50;4.78;;;6.00;99.90;;;;;;5093555;28;20058;-48
2023/01/10 03:41:25;;;;;;;24.42;5.22;;;5.80;99.90;;;;;;5094887;28;20582;-48
2023/01/10 03:47:14;;;;;;;27.70;4.33;;;5.70;99.90;;;;;;5076165;28;20460;-46
2023/01/10 03:49:42;;;;;;;27.60;5.18;;;5.70;99.90;;;;;;5094404;28;20614;-51
2023/01/10 03:52:12;;;;;;;24.40;5.22;;;5.70;99.90;;;;;;5075382;28;20047;-48
2023/01/10 03:54:40;;;;;;;28.85;4.90;;;5.70;99.90;;;;;;5093487;28;20044;-47
2023/01/10 03:57:06;;;;;;;32.75;4.95;;;5.80;99.90;;;;;;5094980;28;20150;-46
2023/01/10 03:59:33;;;;;;;28.35;5.03;;;5.80;99.90;;;;;;5094836;28;20071;-46
2023/01/10 04:01:58;;;;;;;32.75;5.38;;;5.90;99.90;;;;;;5094279;28;20050;-46
2023/01/10 04:04:24;;;;;;;18.08;5.25;;;6.00;99.90;;;;;;5094148;28;20044;-46
2023/01/10 04:06:49;;;;;;;28.73;5.97;;;5.90;99.90;;;;;;5076276;28;20391;-47
2023/01/10 04:09:15;;;;;;;30.95;5.32;;;5.90;99.90;;;;;;5094565;28;20035;-47
2023/01/10 04:11:41;;;;;;;32.70;5.13;;;6.00;99.90;;;;;;5093694;28;20036;-46
2023/01/10 04:14:07;;;;;;;29.42;4.55;;;5.90;99.90;;;;;;5093672;28;20408;-49
2023/01/10 04:16:32;;;;;;;36.85;4.68;;;6.10;99.90;;;;;;5093450;28;20082;-47
2023/01/10 04:18:58;;;;;;;35.25;5.00;;;6.00;99.90;;;;;;5075241;28;20557;-46
2023/01/10 04:21:24;;;;;;;25.67;5.22;;;6.00;99.90;;;;;;5095139;28;20051;-48
2023/01/10 04:23:49;;;;;;;30.90;5.65;;;6.00;99.90;;;;;;5095171;28;20063;-48
2023/01/10 04:26:15;;;;;;;26.98;5.25;;;6.00;99.90;;;;;;5095173;28;20089;-47
2023/01/10 04:28:40;;;;;;;28.10;5.00;;;6.10;99.90;;;;;;5076028;28;20537;-48
2023/01/10 04:31:06;;;;;;;27.95;5.53;;;6.00;99.90;;;;;;5093821;28;20050;-46
2023/01/10 04:33:32;;;;;;;29.42;6.20;;;6.10;99.90;;;;;;5093327;28;20734;-47
2023/01/10 04:35:58;;;;;;;26.55;5.95;;;6.10;99.90;;;;;;5094039;28;20044;-49
2023/01/10 04:38:23;;;;;;;27.48;5.13;;;6.10;99.90;;;;;;5093792;28;20047;-47
2023/01/10 04:40:56;;;;;;;30.75;4.88;;;6.10;99.90;;;;;;5093715;28;20182;-50
2023/01/10 04:43:25;;;;;;;31.05;5.68;;;6.00;99.90;;;;;;5093524;28;20517;-45
2023/01/10 04:45:51;;;;;;;26.80;4.93;;;6.00;99.90;;;;;;5076035;28;20211;-47
2023/01/10 04:48:20;;;;;;;26.95;4.97;;;6.10;99.90;;;;;;5093786;28;20079;-48
2023/01/10 04:50:52;;;;;;;35.08;5.97;;;6.20;99.90;;;;;;5074368;28;20031;-46
2023/01/10 04:53:18;;;;;;;37.22;5.95;;;6.20;99.90;;;;;;5093238;28;20553;-47
2023/01/10 04:55:45;;;;;;;26.95;6.38;;;6.10;99.90;;;;;;5093636;28;20123;-48
2023/01/10 04:58:11;;;;;;;28.02;5.70;;;6.00;99.90;;;;;;5093199;28;20430;-46
2023/01/10 05:00:37;;;;;;;31.40;5.40;;;6.20;99.90;;;;;;5088053;28;20278;-48
2023/01/10 05:03:03;;;;;;;30.92;6.30;;;6.30;99.90;;;;;;5092530;28;20040;-46
2023/01/10 05:05:30;;;;;;;27.88;4.95;;;6.10;99.90;;;;;;5091115;28;20423;-49
2023/01/10 05:07:56;;;;;;;19.95;4.68;;;6.10;99.90;;;;;;5091994;28;20430;-47
2023/01/10 05:10:21;;;;;;;26.15;4.68;;;6.10;99.90;;;;;;5074562;28;20072;-50
2023/01/10 05:12:47;;;;;;;14.70;3.22;;;6.10;99.90;;;;;;5093080;28;20120;-46
2023/01/10 05:15:13;;;;;;;10.57;2.75;;;6.00;99.90;;;;;;5074991;28;20396;-50
2023/01/10 05:17:39;;;;;;;13.63;3.13;;;6.10;99.90;;;;;;5093327;28;20054;-47
2023/01/10 05:20:06;;;;;;;11.52;2.50;;;6.00;99.90;;;;;;5093249;28;20124;-47
2023/01/10 05:22:32;;;;;;;10.38;3.20;;;5.90;99.90;;;;;;5074839;28;20040;-47
2023/01/10 05:24:58;;;;;;;9.00;1.88;;;5.90;99.90;;;;;;5092433;28;20051;-49
2023/01/10 05:27:24;;;;;;;13.55;3.28;;;6.00;99.90;;;;;;5092724;28;20047;-49
2023/01/10 05:29:50;;;;;;;14.00;2.28;;;6.00;99.90;;;;;;5092958;28;20529;-50
2023/01/10 05:32:15;;;;;;;16.38;2.67;;;5.80;99.90;;;;;;5092326;28;20039;-47
2023/01/10 05:34:41;;;;;;;12.18;2.53;;;5.90;99.90;;;;;;5092628;28;20075;-47
2023/01/10 05:37:07;;;;;;;12.13;2.60;;;5.80;99.90;;;;;;5093285;28;20539;-45
2023/01/10 05:39:32;;;;;;;21.13;3.25;;;5.80;99.90;;;;;;5092396;28;20091;-45
2023/01/10 05:41:59;;;;;;;13.77;2.75;;;5.90;99.90;;;;;;5073735;28;20039;-47
2023/01/10 05:44:24;;;;;;;19.42;3.47;;;5.70;99.90;;;;;;5074467;28;20078;-47
2023/01/10 05:46:50;;;;;;;20.45;4.43;;;5.70;99.90;;;;;;5092669;28;20493;-46
2023/01/10 05:49:15;;;;;;;19.05;4.18;;;5.70;99.90;;;;;;5092994;28;20054;-46
2023/01/10 05:51:41;;;;;;;24.83;5.00;;;5.60;99.90;;;;;;5092206;28;20362;-54
2023/01/10 05:54:07;;;;;;;27.63;5.50;;;5.50;99.90;;;;;;5091870;28;20325;-45
2023/01/10 05:56:33;;;;;;;19.33;4.60;;;5.40;99.90;;;;;;5092202;28;20126;-46
2023/01/10 05:58:58;;;;;;;24.35;5.97;;;5.40;99.90;;;;;;5092380;28;20370;-47
2023/01/10 06:01:24;;;;;;;33.85;5.40;;;5.30;99.90;;;;;;5072755;28;20132;-49
2023/01/10 06:03:50;;;;;;;24.23;4.55;;;5.40;99.90;;;;;;5073858;28;20656;-45
2023/01/10 06:06:15;;;;;;;34.30;5.93;;;5.30;99.90;;;;;;5074908;28;20047;-49
2023/01/10 06:08:41;;;;;;;30.73;5.95;;;5.20;99.90;;;;;;5092984;28;20036;-46
2023/01/10 06:11:07;;;;;;;23.27;4.80;;;5.20;99.90;;;;;;5092279;28;20147;-46
2023/01/10 06:13:33;;;;;;;31.90;4.60;;;5.10;99.90;;;;;;5092418;28;20088;-46
2023/01/10 06:15:59;;;;;;;33.40;5.90;;;5.10;99.90;;;;;;5094383;28;20048;-47
2023/01/10 06:18:25;;;;;;;25.85;5.10;;;5.00;99.90;;;;;;5094077;28;20070;-45
2023/01/10 06:20:50;;;;;;;36.33;6.35;;;5.10;99.90;;;;;;5073990;28;20039;-50
2023/01/10 06:23:16;;;;;;;32.42;5.32;;;5.10;99.90;;;;;;5091932;28;20035;-46
2023/01/10 06:25:42;;;;;;;34.00;6.45;;;5.10;99.90;;;;;;5074613;28;20043;-47
2023/01/10 06:28:12;;;;;;;27.75;6.57;;;5.00;99.90;;;;;;5074957;28;20055;-49
2023/01/10 06:30:40;;;;;;;32.97;6.13;;;4.90;99.90;;;;;;5091920;28;20123;-49
2023/01/10 06:33:08;;;;;;;35.13;5.93;;;5.00;99.90;;;;;;5092748;28;20108;-48
2023/01/10 06:35:34;;;;;;;44.45;6.40;;;5.00;99.90;;;;;;5073184;28;20428;-48
2023/01/10 06:38:00;;;;;;;37.95;6.45;;;4.80;99.90;;;;;;5092304;28;20040;-45
2023/01/10 06:40:26;;;;;;;35.88;6.18;;;5.00;99.90;;;;;;5091974;28;20043;-47
2023/01/10 06:42:52;;;;;;;31.08;8.10;;;5.10;99.90;;;;;;5092079;28;20050;-45
2023/01/10 06:45:18;;;;;;;37.13;6.63;;;4.90;99.90;;;;;;5091790;28;20066;-49
2023/01/10 06:47:43;;;;;;;43.45;6.35;;;4.90;99.90;;;;;;5074576;28;20039;-46
2023/01/10 06:50:11;;;;;;;35.22;6.78;;;4.90;99.90;;;;;;5091162;28;20058;-49
2023/01/10 06:52:38;;;;;;;45.40;7.38;;;5.00;99.90;;;;;;5092200;28;20280;-47
2023/01/10 06:55:05;;;;;;;40.65;7.50;;;5.10;99.90;;;;;;5091574;28;20477;-46
2023/01/10 06:57:34;;;;;;;36.80;6.60;;;5.10;99.90;;;;;;5074502;28;20096;-46
2023/01/10 07:00:01;;;;;;;37.55;6.80;;;5.30;99.90;;;;;;5092052;28;20123;-46
2023/01/10 07:02:27;;;;;;;38.95;7.63;;;5.50;99.90;;;;;;5092644;28;20055;-45
2023/01/10 07:04:52;;;;;;;36.63;6.00;;;5.50;99.90;;;;;;5057315;28;20079;-48
2023/01/10 07:07:18;;;;;;;29.83;7.05;;;5.40;99.90;;;;;;5092660;28;20571;-47
2023/01/10 07:09:45;;;;;;;32.90;6.82;;;5.50;99.90;;;;;;5093283;28;20043;-50
2023/01/10 07:12:10;;;;;;;38.55;6.40;;;5.60;99.90;;;;;;5091893;28;20048;-46
2023/01/10 07:14:36;;;;;;;37.17;8.40;;;5.50;99.90;;;;;;5093782;28;20093;-46
2023/01/10 07:17:02;;;;;;;37.83;7.13;;;5.70;99.90;;;;;;5095359;28;20048;-45
2023/01/10 07:19:28;;;;;;;33.38;6.85;;;5.60;99.90;;;;;;5094490;28;20077;-48
2023/01/10 07:21:53;;;;;;;31.52;7.18;;;5.60;99.90;;;;;;5076899;28;20479;-46
2023/01/10 07:24:19;;;;;;;31.98;7.43;;;5.70;99.90;;;;;;5095163;28;20047;-49
2023/01/10 07:26:45;;;;;;;29.67;6.28;;;5.80;99.90;;;;;;5096219;28;20043;-48
2023/01/10 07:29:11;;;;;;;31.17;7.25;;;5.80;99.90;;;;;;5095486;28;20094;-46
2023/01/10 07:31:36;;;;;;;24.77;5.57;;;5.70;99.90;;;;;;5094772;28;20043;-47
2023/01/10 07:34:02;;;;;;;28.02;5.85;;;5.50;99.90;;;;;;5075456;28;20053;-46
2023/01/10 07:36:27;;;;;;;36.05;6.93;;;5.40;99.90;;;;;;5094955;28;20047;-46
2023/01/10 07:38:53;;;;;;;35.78;5.70;;;5.40;99.90;;;;;;5077230;28;20798;-46
2023/01/10 07:41:19;;;;;;;38.92;6.93;;;5.30;99.90;;;;;;5094535;28;20043;-50
2023/01/10 07:43:44;;;;;;;39.45;7.05;;;5.20;99.90;;;;;;5076354;28;20101;-46
2023/01/10 07:46:11;;;;;;;33.10;7.85;;;5.20;99.90;;;;;;5094646;28;20453;-47
2023/01/10 07:48:38;;;;;;;29.00;5.60;;;5.20;99.90;;;;;;5094348;28;20192;-48
2023/01/10 07:51:04;;;;;;;28.92;5.57;;;5.10;99.90;;;;;;5074513;28;20066;-48
2023/01/10 07:53:30;;;;;;;29.08;5.72;;;5.00;99.90;;;;;;5093986;28;20080;-45
2023/01/10 07:56:00;;;;;;;28.00;6.47;;;5.00;99.90;;;;;;5093916;28;20044;-47
2023/01/10 07:58:27;;;;;;;36.72;6.65;;;5.00;99.90;;;;;;5092189;28;20036;-50
2023/01/10 08:01:01;;;;;;;31.98;6.15;;;5.00;99.90;;;;;;5092927;28;20139;-45
2023/01/10 08:03:28;;;;;;;32.05;6.47;;;5.00;99.90;;;;;;5093090;28;20047;-48
2023/01/10 08:05:59;;;;;;;29.85;6.07;;;4.80;99.90;;;;;;5093889;28;20132;-48
2023/01/10 08:08:24;;;;;;;27.20;6.68;;;4.80;99.90;;;;;;5075564;28;20605;-47
2023/01/10 08:10:50;;;;;;;30.67;5.60;;;5.00;99.90;;;;;;5074374;28;20077;-50
2023/01/10 08:13:16;;;;;;;32.55;6.05;;;4.90;99.90;;;;;;5094012;28;20040;-49
2023/01/10 08:15:41;;;;;;;23.90;4.93;;;4.80;99.90;;;;;;5093346;28;20032;-45
2023/01/10 08:18:07;;;;;;;24.10;5.03;;;4.80;99.90;;;;;;5093880;28;20567;-46
2023/01/10 08:20:32;;;;;;;29.40;5.70;;;4.90;99.90;;;;;;5092425;28;20051;-46
2023/01/10 08:22:59;;;;;;;36.40;7.13;;;4.90;99.90;;;;;;5095657;28;20462;-46
2023/01/10 08:25:25;;;;;;;39.83;6.65;;;4.80;99.90;;;;;;5093771;28;20183;-46
2023/01/10 08:27:51;;;;;;;37.47;7.15;;;5.10;99.90;;;;;;5075725;28;20051;-48
2023/01/10 08:30:16;;;;;;;34.25;6.45;;;5.10;99.90;;;;;;5093503;28;20496;-47
2023/01/10 08:32:42;;;;;;;30.35;6.28;;;5.00;99.90;;;;;;5094263;28;20532;-46
2023/01/10 08:35:09;;;;;;;34.25;5.63;;;5.10;99.90;;;;;;5093588;28;20047;-46
2023/01/10 08:37:34;;;;;;;27.67;5.57;;;5.20;99.90;;;;;;5093968;28;20439;-46
2023/01/10 08:40:00;;;;;;;27.90;5.88;;;5.30;99.90;;;;;;5092708;28;20565;-45
2023/01/10 08:42:26;;;;;;;26.73;5.95;;;5.40;99.90;;;;;;5091728;28;20177;-46
2023/01/10 08:44:53;;;;;;;24.95;5.72;;;5.30;99.90;;;;;;5092724;28;20423;-46
2023/01/10 08:47:19;;;;;;;25.83;5.63;;;5.40;99.90;;;;;;5093922;28;20052;-47
2023/01/10 08:49:46;;;;;;;22.98;4.85;;;5.40;99.90;;;;;;5093634;28;20051;-45
2023/01/10 08:52:12;;;;;;;22.65;5.43;;;5.60;99.90;;;;;;5093578;28;20040;-46
2023/01/10 08:54:37;;;;;;;26.58;5.40;;;5.60;99.90;;;;;;5095442;28;20446;-45
2023/01/10 08:57:03;;;;;;;22.70;5.18;;;5.80;99.90;;;;;;5065377;28;20138;-46
2023/01/10 08:59:29;;;;;;;25.30;5.53;;;5.80;99.90;;;;;;5080798;28;20126;-45
2023/01/10 09:01:57;;;;;;;23.70;5.20;;;6.00;99.90;;;;;;5080935;28;20063;-46
2023/01/10 09:04:23;;;;;;;20.73;5.35;;;5.90;99.90;;;;;;5076814;28;20122;-48
2023/01/10 09:06:49;;;;;;;22.67;4.60;;;6.00;99.90;;;;;;5064095;28;20040;-47
2023/01/10 09:09:14;;;;;;;18.60;4.53;;;6.10;99.90;;;;;;5081070;28;20309;-46
2023/01/10 09:11:40;;;;;;;28.42;5.32;;;6.20;99.90;;;;;;5076630;28;20527;-49
2023/01/10 09:14:06;;;;;;;30.00;5.72;;;6.20;99.90;;;;;;5074160;28;20457;-47
2023/01/10 09:16:32;;;;;;;31.58;5.43;;;6.20;99.90;;;;;;5079541;28;20069;-47
2023/01/10 09:18:58;;;;;;;26.73;5.38;;;6.30;99.90;;;;;;5059608;28;20047;-47
2023/01/10 09:21:23;;;;;;;24.27;5.25;;;6.30;99.90;;;;;;5080702;28;20513;-46
2023/01/10 09:23:49;;;;;;;29.77;6.40;;;6.40;99.90;;;;;;5057858;28;20079;-46
2023/01/10 09:26:15;;;;;;;22.95;5.45;;;6.40;99.90;;;;;;5076218;28;20046;-46
2023/01/10 09:28:40;;;;;;;27.60;5.95;;;6.40;99.90;;;;;;5077513;28;20036;-48
2023/01/10 09:31:07;;;;;;;30.75;7.15;;;6.40;99.90;;;;;;5077138;28;20500;-47
2023/01/10 09:33:35;;;;;;;25.23;7.32;;;6.40;99.90;;;;;;5075440;28;20054;-46
2023/01/10 09:36:01;;;;;;;27.65;7.25;;;6.30;99.90;;;;;;5080591;28;20052;-47
2023/01/10 09:38:27;;;;;;;31.17;7.65;;;6.40;99.90;;;;;;5075582;28;20730;-45
2023/01/10 09:41:17;;;;;;;33.17;7.15;;;6.40;99.90;;;;;;5079203;28;20549;-47
2023/01/10 09:44:03;;;;;;;32.38;7.20;;;6.30;99.90;;;;;;5080833;28;20406;-47
2023/01/10 09:46:36;;;;;;;30.27;7.25;;;6.30;99.90;;;;;;5079478;28;20048;-46
2023/01/10 09:49:16;;;;;;;;;;;6.50;99.90;;;;;;5072268;28;20398;-48
2023/01/10 09:51:46;;;;;;;26.23;6.18;;;6.40;99.90;;;;;;5076688;28;19998;-47
2023/01/10 09:54:33;;;;;;;28.73;5.93;;;6.40;99.90;;;;;;5073047;28;20486;-50
2023/01/10 09:57:00;;;;;;;34.40;6.15;;;6.40;99.90;;;;;;5055002;28;20048;-46
2023/01/10 09:59:36;;;;;;;31.23;6.20;;;6.50;99.90;;;;;;5074560;28;20113;-46
2023/01/10 10:02:28;;;;;;;27.02;6.47;;;6.50;99.90;;;;;;5074619;28;20044;-46
2023/01/10 10:05:06;;;;;;;28.70;5.57;;;6.60;99.90;;;;;;5078809;28;20067;-48
2023/01/10 10:07:32;;;;;;;27.75;6.22;;;6.50;99.90;;;;;;5073855;28;20047;-46
2023/01/10 10:09:57;;;;;;;32.53;7.20;;;6.60;99.90;;;;;;5076724;28;20366;-46
2023/01/10 10:12:32;;;;;;;30.80;5.40;;;6.60;99.90;;;;;;5087200;28;20074;-48
2023/01/10 10:15:30;;;;;;;29.60;6.22;;;6.50;99.90;;;;;;5074892;28;20055;-46
2023/01/10 10:18:04;;;;;;;26.23;5.70;;;6.60;99.90;;;;;;5012171;28;20084;-50
2023/01/10 10:20:56;;;;;;;23.58;5.55;;;6.60;99.90;;;;;;5029937;28;20395;-46
2023/01/10 10:23:36;;;;;;;26.77;6.93;;;6.60;99.90;;;;;;5025644;28;20041;-47
2023/01/10 10:26:23;;;;;;;27.42;6.82;;;6.50;99.90;;;;;;5031251;28;20515;-45
2023/01/10 10:29:32;;;;;;;27.60;5.70;;;6.50;99.90;;;;;;5030426;28;20053;-47
2023/01/10 10:32:00;;;;;;;29.38;6.65;;;6.60;99.90;;;;;;4990003;28;21031;-46
2023/01/10 10:34:35;;;;;;;30.70;6.53;;;6.50;99.90;;;;;;4990946;28;20265;-47
2023/01/10 10:37:18;;;;;;;36.20;7.65;;;6.60;99.90;;;;;;4990738;28;20154;-47
2023/01/10 10:39:58;;;;;;;49.35;16.98;;;6.60;99.90;;;;;;4991385;28;20132;-48
2023/01/10 10:42:34;;;;;;;31.65;7.65;;;6.60;99.90;;;;;;4991324;28;20423;-47
2023/01/10 10:45:03;;;;;;;29.48;7.35;;;6.70;99.90;;;;;;4973907;28;20834;-47
2023/01/10 10:47:39;;;;;;;38.88;8.52;;;6.60;99.90;;;;;;4991586;28;20623;-46
2023/01/10 10:50:38;;;;;;;32.17;9.05;;;6.70;99.90;;;;;;4994445;28;21051;-46
2023/01/10 10:53:04;;;;;;;33.55;9.80;;;6.60;99.90;;;;;;4993909;28;20061;-45
2023/01/10 10:55:34;;;;;;;40.90;9.75;;;6.60;99.90;;;;;;5033747;28;20079;-46
2023/01/10 10:58:01;;;;;;;44.13;10.80;;;6.60;99.90;;;;;;5035112;28;20052;-49
2023/01/10 11:00:28;;;;;;;37.20;12.23;;;6.70;99.90;;;;;;5033902;28;20183;-47
2023/01/10 11:02:56;;;;;;;33.05;11.27;;;6.60;99.90;;;;;;5033735;28;20064;-47
2023/01/10 11:05:41;;;;;;;35.03;11.40;;;6.60;99.90;;;;;;5034737;28;20055;-46
2023/01/10 11:08:14;;;;;;;38.00;11.48;;;6.60;99.90;;;;;;5051658;28;20071;-46
2023/01/10 11:10:43;;;;;;;37.22;11.32;;;6.60;99.90;;;;;;5097816;28;20047;-46
2023/01/10 11:13:38;;;;;;;31.08;10.00;;;6.60;99.90;;;;;;5097807;28;20623;-47
2023/01/10 11:16:05;;;;;;;41.65;11.32;;;6.60;99.90;;;;;;5099042;28;20061;-46
2023/01/10 11:18:31;;;;;;;44.90;12.48;;;6.50;99.90;;;;;;5079107;28;20054;-47
2023/01/10 11:21:05;;;;;;;34.92;11.77;;;6.60;99.90;;;;;;5097144;28;20047;-47
2023/01/10 11:23:36;;;;;;;;;;;6.50;99.90;;;;;;5097632;28;20058;-46
2023/01/10 11:26:04;;;;;;;40.22;11.80;;;6.40;99.90;;;;;;5097605;28;20385;-46
2023/01/10 11:28:32;;;;;;;33.53;11.02;;;6.40;99.90;;;;;;5097281;28;20051;-46
2023/01/10 11:30:59;;;;;;;38.17;10.95;;;6.40;99.90;;;;;;5077895;28;20758;-47
2023/01/10 11:33:31;;;;;;;28.80;10.13;;;6.40;99.90;;;;;;5096594;28;20599;-48
2023/01/10 11:36:00;;;;;;;38.05;10.32;;;6.40;99.90;;;;;;5097140;28;20132;-45
2023/01/10 11:38:29;;;;;;;38.85;12.25;;;6.30;99.90;;;;;;5096817;28;20040;-48
2023/01/10 11:41:21;;;;;;;34.53;10.73;;;6.30;99.90;;;;;;5096656;28;20086;-47
2023/01/10 11:43:50;;;;;;;39.95;10.80;;;6.30;99.90;;;;;;5097130;28;20055;-46
2023/01/10 11:46:24;;;;;;;36.22;11.02;;;6.30;99.90;;;;;;5097244;28;20055;-46
2023/01/10 11:49:09;;;;;;;44.97;11.55;;;6.30;99.90;;;;;;5096737;28;20047;-48
2023/01/10 11:52:00;;;;;;;31.70;11.30;;;6.20;99.90;;;;;;5093610;28;20383;-46
2023/01/10 11:54:27;;;;;;;36.60;11.40;;;6.20;99.90;;;;;;5096287;28;20673;-46
2023/01/10 11:57:22;;;;;;;37.47;10.05;;;6.20;99.90;;;;;;5078291;28;20112;-46
2023/01/10 11:59:53;;;;;;;37.70;10.70;;;6.20;99.90;;;;;;5076627;28;20062;-49
2023/01/10 12:02:23;;;;;;;38.22;10.10;;;6.10;99.90;;;;;;5097196;28;20047;-48
2023/01/10 12:04:50;;;;;;;37.67;10.77;;;6.20;99.90;;;;;;5096705;28;20522;-46
2023/01/10 12:07:19;;;;;;;32.40;9.95;;;6.10;99.90;;;;;;5079185;28;20130;-50
2023/01/10 12:09:57;;;;;;;36.53;10.73;;;6.20;99.90;;;;;;5097276;28;20590;-46
2023/01/10 12:12:25;;;;;;;36.88;11.35;;;6.20;99.90;;;;;;5096419;28;20073;-45
2023/01/10 12:14:53;;;;;;;41.25;10.63;;;6.10;99.90;;;;;;5076460;28;20151;-45
2023/01/10 12:17:37;;;;;;;35.55;10.77;;;6.10;99.90;;;;;;5076599;28;20128;-45
2023/01/10 12:20:11;;;;;;;30.17;9.15;;;6.10;99.90;;;;;;5076227;28;20513;-46
2023/01/10 12:22:52;;;;;;;33.70;9.88;;;6.10;99.90;;;;;;5095636;28;20070;-46
2023/01/10 12:25:20;;;;;;;37.35;10.30;;;6.10;99.90;;;;;;5096760;28;20051;-47
2023/01/10 12:27:49;;;;;;;39.40;10.13;;;6.10;99.90;;;;;;5097876;28;20050;-48
2023/01/10 12:30:30;;;;;;;40.78;10.73;;;6.10;99.90;;;;;;5096784;28;20056;-48
2023/01/10 12:33:01;;;;;;;42.20;10.02;;;6.10;99.90;;;;;;5078035;28;20507;-46
2023/01/10 12:35:57;;;;;;;33.58;9.20;;;6.00;99.90;;;;;;5096362;28;20135;-46
2023/01/10 12:44:35;;;;;;;33.60;9.30;;;6.10;99.90;;;;;;5092895;28;20075;-47
2023/01/10 12:47:03;;;;;;;32.88;9.50;;;6.10;99.90;;;;;;5096749;28;20109;-46
2023/01/10 12:49:33;;;;;;;28.95;10.25;;;6.10;99.90;;;;;;5077311;28;20108;-46
2023/01/10 12:52:05;;;;;;;34.20;9.82;;;6.00;99.90;;;;;;5096317;28;20157;-46
2023/01/10 12:54:30;;;;;;;35.08;10.75;;;6.10;99.90;;;;;;5095423;28;20055;-47
2023/01/10 12:57:05;;;;;;;32.25;9.38;;;6.10;99.90;;;;;;5096018;28;20043;-47
2023/01/10 12:59:38;;;;;;;36.40;9.48;;;6.10;99.90;;;;;;5095330;28;20043;-46
2023/01/10 13:02:13;;;;;;;37.97;9.85;;;6.10;99.90;;;;;;5096012;28;20667;-47
2023/01/10 13:04:41;;;;;;;37.58;8.38;;;6.10;99.90;;;;;;5094995;28;20043;-49
2023/01/10 13:07:11;;;;;;;36.92;9.20;;;6.10;99.90;;;;;;5095184;28;20050;-49
2023/01/10 13:09:39;;;;;;;34.90;8.85;;;6.10;99.90;;;;;;5095055;28;20383;-47
2023/01/10 13:12:13;;;;;;;31.52;7.60;;;6.00;99.90;;;;;;5095199;28;20048;-47
2023/01/10 13:14:58;;;;;;;30.85;9.30;;;6.00;99.90;;;;;;5094410;28;20445;-46
2023/01/10 13:17:29;;;;;;;30.08;7.70;;;6.10;99.90;;;;;;5095447;28;20055;-46